Time;durP1;ratioP1;P1;durP2;ratioP2;P2;SDS_P1;SDS_P2;PMS_P1;PMS_P2;Temp;Humidity;BMP_temperature;BMP_pressure;BME280_temperature;BME280_humidity;BME280_pressure;Samples;Min_cycle;Max_cycle;Signal;HPM_P1;HPM_P2
2023/10/04 00:00:30;;;;;;;4.57;1.50;;;19.80;91.60;;;;;;5032825;28;20048;-84
2023/10/04 00:02:56;;;;;;;3.63;1.40;;;19.80;91.60;;;;;;5032351;28;20116;-84
2023/10/04 00:05:23;;;;;;;4.45;1.75;;;19.80;91.70;;;;;;5032658;28;20053;-84
2023/10/04 00:07:55;;;;;;;2.97;1.33;;;19.80;91.70;;;;;;5024048;28;20053;-84
2023/10/04 00:10:23;;;;;;;3.92;1.38;;;19.80;91.70;;;;;;5014046;28;20025;-84
2023/10/04 00:12:50;;;;;;;3.22;1.40;;;19.80;91.70;;;;;;4996200;28;20026;-85
2023/10/04 00:15:25;;;;;;;3.78;1.58;;;19.80;91.70;;;;;;4996440;28;20025;-84
2023/10/04 00:17:52;;;;;;;3.28;1.52;;;19.80;91.70;;;;;;4996467;28;20480;-85
2023/10/04 00:20:19;;;;;;;3.08;1.48;;;19.80;91.80;;;;;;4996409;28;20022;-85
2023/10/04 00:22:48;;;;;;;3.40;1.40;;;19.80;91.80;;;;;;4996003;28;20095;-84
2023/10/04 00:25:21;;;;;;;2.67;1.30;;;19.80;91.80;;;;;;4996410;28;20100;-85
2023/10/04 00:27:48;;;;;;;2.72;1.40;;;19.80;91.80;;;;;;4996213;28;20026;-84
2023/10/04 00:30:15;;;;;;;4.00;1.58;;;19.80;91.70;;;;;;4996180;28;20092;-84
2023/10/04 00:32:46;;;;;;;3.53;1.45;;;19.80;91.70;;;;;;5013383;28;20088;-85
2023/10/04 00:35:19;;;;;;;2.55;1.40;;;19.80;91.60;;;;;;4996027;28;20029;-84
2023/10/04 00:37:51;;;;;;;3.08;1.40;;;19.80;91.50;;;;;;4995921;28;20105;-85
2023/10/04 00:40:21;;;;;;;2.55;1.30;;;19.90;91.60;;;;;;4995905;28;20026;-84
2023/10/04 00:42:50;;;;;;;5.10;1.55;;;19.90;91.60;;;;;;4995829;28;20104;-84
2023/10/04 00:45:16;;;;;;;4.25;1.40;;;19.80;91.50;;;;;;4995898;28;20026;-84
2023/10/04 00:47:47;;;;;;;3.28;1.33;;;19.80;91.50;;;;;;4995911;28;20053;-84
2023/10/04 00:50:26;;;;;;;2.65;1.30;;;19.80;91.60;;;;;;4995809;28;20029;-84
2023/10/04 00:53:00;;;;;;;2.75;1.30;;;19.80;91.60;;;;;;4995457;28;20061;-84
2023/10/04 00:55:27;;;;;;;3.58;1.40;;;19.80;91.60;;;;;;4995726;28;20506;-84
2023/10/04 00:57:54;;;;;;;3.58;1.50;;;19.80;91.60;;;;;;4995645;28;20025;-85
2023/10/04 01:00:20;;;;;;;3.22;1.60;;;19.80;91.60;;;;;;5013269;28;20030;-84
2023/10/04 01:02:47;;;;;;;3.05;1.38;;;19.80;91.70;;;;;;4995384;28;20121;-85
2023/10/04 01:05:15;;;;;;;3.58;1.60;;;19.80;91.70;;;;;;4995756;28;20057;-85
2023/10/04 01:07:42;;;;;;;4.80;1.45;;;19.70;91.70;;;;;;5013128;28;20032;-84
2023/10/04 01:10:15;;;;;;;3.25;1.38;;;19.80;91.70;;;;;;5012910;28;20426;-84
2023/10/04 01:12:44;;;;;;;3.05;1.40;;;19.80;91.70;;;;;;4995199;28;20022;-84
2023/10/04 01:18:11;;;;;;;3.92;1.60;;;19.80;91.70;;;;;;4991928;28;20113;-84
2023/10/04 01:20:39;;;;;;;4.68;1.70;;;19.80;91.80;;;;;;4995239;28;20028;-84
2023/10/04 01:23:06;;;;;;;3.60;1.50;;;19.80;92.00;;;;;;4995171;28;20025;-84
2023/10/04 01:25:33;;;;;;;3.50;1.55;;;19.80;91.80;;;;;;4995306;28;20539;-85
2023/10/04 01:28:00;;;;;;;2.55;1.25;;;19.80;91.80;;;;;;4995318;28;20026;-84
2023/10/04 01:30:27;;;;;;;3.55;1.40;;;19.90;91.80;;;;;;4995270;28;20593;-84
2023/10/04 01:32:53;;;;;;;2.45;1.10;;;19.80;91.70;;;;;;4995040;28;20149;-84
2023/10/04 01:35:23;;;;;;;4.05;1.73;;;19.80;91.60;;;;;;4995370;28;20029;-84
2023/10/04 01:37:49;;;;;;;3.67;1.48;;;19.80;91.70;;;;;;4995337;28;20109;-85
2023/10/04 01:40:18;;;;;;;3.58;1.60;;;19.80;91.60;;;;;;4995325;28;20032;-85
2023/10/04 01:42:45;;;;;;;3.60;1.60;;;19.80;91.60;;;;;;4996453;28;20037;-84
2023/10/04 01:45:12;;;;;;;3.20;1.30;;;19.80;91.60;;;;;;4995115;28;20033;-84
2023/10/04 01:47:38;;;;;;;3.75;1.48;;;19.80;91.60;;;;;;4995076;28;20034;-85
2023/10/04 01:50:06;;;;;;;4.05;1.60;;;19.80;91.60;;;;;;4995070;28;20052;-84
2023/10/04 01:52:31;;;;;;;3.17;1.40;;;19.70;91.60;;;;;;4994681;28;20105;-84
2023/10/04 01:54:58;;;;;;;3.20;1.20;;;19.70;91.60;;;;;;4995037;28;20631;-84
2023/10/04 01:57:24;;;;;;;3.03;1.30;;;19.70;91.70;;;;;;4995049;28;20146;-85
2023/10/04 01:59:49;;;;;;;2.67;1.30;;;19.70;91.70;;;;;;4994987;28;20133;-84
2023/10/04 02:02:15;;;;;;;3.20;1.40;;;19.70;91.70;;;;;;4994751;28;20113;-84
2023/10/04 02:04:41;;;;;;;3.78;1.50;;;19.80;91.70;;;;;;5012510;28;20036;-84
2023/10/04 02:07:07;;;;;;;3.47;1.30;;;19.70;91.70;;;;;;4994945;28;20021;-84
2023/10/04 02:09:33;;;;;;;3.28;1.40;;;19.70;91.70;;;;;;4995337;28;20121;-84
2023/10/04 02:11:58;;;;;;;3.17;1.42;;;19.70;91.70;;;;;;5010996;28;20105;-84
2023/10/04 02:14:25;;;;;;;2.53;1.35;;;19.70;91.70;;;;;;5011260;28;20025;-84
2023/10/04 02:16:52;;;;;;;3.42;1.20;;;19.70;91.70;;;;;;5012565;28;20021;-84
2023/10/04 02:19:17;;;;;;;3.83;1.67;;;19.70;91.80;;;;;;5011204;28;20072;-85
2023/10/04 02:21:43;;;;;;;3.00;1.40;;;19.70;91.70;;;;;;5011131;28;20495;-84
2023/10/04 02:24:09;;;;;;;3.35;1.33;;;19.80;91.70;;;;;;5010835;28;20022;-84
2023/10/04 02:26:35;;;;;;;4.13;1.50;;;19.80;91.70;;;;;;5014202;28;20472;-84
2023/10/04 02:29:01;;;;;;;3.25;1.30;;;19.80;91.60;;;;;;5014684;28;20033;-84
2023/10/04 02:31:29;;;;;;;3.38;1.50;;;19.80;91.70;;;;;;5014564;28;20037;-84
2023/10/04 02:33:54;;;;;;;3.53;1.60;;;19.80;91.60;;;;;;5014447;28;20022;-84
2023/10/04 02:36:20;;;;;;;2.90;1.30;;;19.80;91.60;;;;;;5014574;28;20022;-85
2023/10/04 02:38:46;;;;;;;3.90;1.77;;;19.70;91.60;;;;;;5015810;28;20066;-84
2023/10/04 02:41:11;;;;;;;3.17;1.38;;;19.80;91.60;;;;;;5014602;28;20140;-84
2023/10/04 02:43:37;;;;;;;4.45;1.40;;;19.70;91.60;;;;;;5014220;28;20155;-84
2023/10/04 02:46:03;;;;;;;3.67;1.35;;;19.70;91.60;;;;;;5011524;28;20661;-85
2023/10/04 02:48:32;;;;;;;3.13;1.48;;;19.70;91.60;;;;;;5006421;28;20502;-84
2023/10/04 02:50:58;;;;;;;4.20;1.40;;;19.70;91.60;;;;;;5027511;28;20492;-84
2023/10/04 02:53:25;;;;;;;2.95;1.40;;;19.70;91.70;;;;;;4994527;28;20034;-85
2023/10/04 02:55:54;;;;;;;3.95;1.65;;;19.70;91.70;;;;;;4994627;28;20069;-84
2023/10/04 02:58:20;;;;;;;3.20;1.40;;;19.70;91.70;;;;;;4994747;28;20400;-84
2023/10/04 03:00:49;;;;;;;3.05;1.38;;;19.70;91.70;;;;;;4994681;28;20053;-84
2023/10/04 03:03:19;;;;;;;3.47;1.50;;;19.70;91.70;;;;;;4994320;28;20030;-84
2023/10/04 03:05:45;;;;;;;3.92;1.90;;;19.70;91.70;;;;;;4994469;28;20037;-84
2023/10/04 03:08:11;;;;;;;4.30;1.48;;;19.70;91.70;;;;;;4994509;28;20030;-84
2023/10/04 03:10:37;;;;;;;3.00;1.50;;;19.70;91.70;;;;;;4994322;28;20073;-84
2023/10/04 03:13:12;;;;;;;3.28;1.42;;;19.70;91.70;;;;;;4994126;28;20085;-84
2023/10/04 03:15:38;;;;;;;4.15;1.40;;;19.70;91.70;;;;;;4994345;28;20117;-84
2023/10/04 03:18:13;;;;;;;3.05;1.30;;;19.70;91.70;;;;;;4994208;28;20023;-84
2023/10/04 03:20:45;;;;;;;3.58;1.52;;;19.70;91.70;;;;;;4993631;28;20570;-84
2023/10/04 03:23:11;;;;;;;3.08;1.48;;;19.70;91.70;;;;;;4990966;28;20034;-85
2023/10/04 03:25:36;;;;;;;2.42;1.40;;;19.70;91.70;;;;;;5004146;28;20030;-84
2023/10/04 03:28:02;;;;;;;2.83;1.30;;;19.80;91.70;;;;;;5012087;28;20072;-84
2023/10/04 03:30:28;;;;;;;3.10;1.48;;;19.70;91.60;;;;;;5011580;28;20030;-83
2023/10/04 03:32:55;;;;;;;4.07;1.60;;;19.70;91.60;;;;;;5011364;28;20092;-84
2023/10/04 03:35:22;;;;;;;3.05;1.50;;;19.70;91.50;;;;;;5011648;28;20022;-85
2023/10/04 03:37:58;;;;;;;2.85;1.50;;;19.70;91.50;;;;;;5011312;28;20030;-84
2023/10/04 03:40:24;;;;;;;3.42;1.35;;;19.70;91.60;;;;;;5012267;28;20026;-83
2023/10/04 03:42:50;;;;;;;4.13;1.60;;;19.70;91.60;;;;;;5011767;28;20030;-83
2023/10/04 03:45:17;;;;;;;3.10;1.40;;;19.70;91.60;;;;;;5011982;28;20026;-84
2023/10/04 03:47:44;;;;;;;3.28;1.48;;;19.70;91.60;;;;;;5014161;28;20080;-84
2023/10/04 03:50:12;;;;;;;3.75;1.50;;;19.60;91.60;;;;;;5030890;28;20444;-84
2023/10/04 03:52:39;;;;;;;3.08;1.30;;;19.60;91.60;;;;;;5030108;28;20047;-84
2023/10/04 03:55:09;;;;;;;3.78;1.58;;;19.70;91.70;;;;;;5030057;28;20053;-85
2023/10/04 03:57:37;;;;;;;4.07;1.40;;;19.60;91.70;;;;;;5031849;28;20120;-85
2023/10/04 04:00:10;;;;;;;3.03;1.38;;;19.60;91.70;;;;;;5032491;28;20021;-83
2023/10/04 04:02:36;;;;;;;2.75;1.23;;;19.60;91.70;;;;;;5029786;28;20049;-84
2023/10/04 04:05:05;;;;;;;2.35;1.10;;;19.70;91.70;;;;;;5030376;28;20021;-84
2023/10/04 04:07:30;;;;;;;2.58;1.10;;;19.60;91.70;;;;;;5031212;28;20582;-84
2023/10/04 04:09:56;;;;;;;3.05;1.35;;;19.60;91.70;;;;;;5030229;28;20045;-85
2023/10/04 04:12:22;;;;;;;3.63;1.45;;;19.70;91.70;;;;;;5029696;28;20118;-84
2023/10/04 04:14:48;;;;;;;2.45;1.30;;;19.60;91.70;;;;;;5030487;28;20398;-84
2023/10/04 04:17:16;;;;;;;3.33;1.48;;;19.60;91.70;;;;;;5031005;28;20017;-84
2023/10/04 04:19:42;;;;;;;3.40;1.35;;;19.70;91.70;;;;;;5028884;28;20455;-84
2023/10/04 04:22:07;;;;;;;3.40;1.45;;;19.70;91.60;;;;;;5028374;28;20120;-83
2023/10/04 04:24:32;;;;;;;3.05;1.40;;;19.70;91.60;;;;;;5028844;28;20051;-85
2023/10/04 04:27:00;;;;;;;3.30;1.38;;;19.70;91.60;;;;;;5028619;28;20025;-82
2023/10/04 04:29:27;;;;;;;3.78;1.50;;;19.70;91.60;;;;;;5028941;28;20087;-84
2023/10/04 04:31:53;;;;;;;3.17;1.25;;;19.70;91.50;;;;;;5013011;28;20801;-84
2023/10/04 04:34:18;;;;;;;3.08;1.40;;;19.60;91.50;;;;;;5008852;28;20032;-84
2023/10/04 04:36:46;;;;;;;4.13;1.70;;;19.60;91.50;;;;;;5007954;28;20026;-83
2023/10/04 04:39:18;;;;;;;2.63;1.23;;;19.60;91.50;;;;;;5006243;28;20132;-84
2023/10/04 04:41:46;;;;;;;3.22;1.48;;;19.60;91.50;;;;;;5003581;28;20026;-83
2023/10/04 04:44:11;;;;;;;3.85;1.50;;;19.60;91.60;;;;;;5007382;28;20026;-84
2023/10/04 04:46:38;;;;;;;3.28;1.50;;;19.60;91.60;;;;;;5006716;28;20044;-83
2023/10/04 04:49:04;;;;;;;2.15;1.17;;;19.60;91.60;;;;;;5008964;28;20105;-84
2023/10/04 04:51:31;;;;;;;4.50;1.77;;;19.60;91.80;;;;;;5007601;28;20117;-83
2023/10/04 04:53:57;;;;;;;4.18;1.55;;;19.60;91.60;;;;;;4988377;28;20030;-84
2023/10/04 04:56:23;;;;;;;3.80;1.50;;;19.60;91.70;;;;;;4992398;28;20033;-83
2023/10/04 04:58:52;;;;;;;3.42;1.33;;;19.50;91.60;;;;;;4988786;28;20022;-84
2023/10/04 05:01:17;;;;;;;2.72;1.35;;;19.60;91.60;;;;;;4995776;28;20022;-84
2023/10/04 05:03:46;;;;;;;4.05;1.63;;;19.60;91.60;;;;;;5007714;28;20025;-83
2023/10/04 05:06:25;;;;;;;2.15;1.10;;;19.60;91.70;;;;;;5008002;28;20022;-83
2023/10/04 05:08:54;;;;;;;3.22;1.40;;;19.60;91.70;;;;;;5008478;28;20037;-85
2023/10/04 05:11:20;;;;;;;3.75;1.50;;;19.60;91.60;;;;;;5008628;28;20407;-85
2023/10/04 05:13:46;;;;;;;4.82;1.48;;;19.60;91.60;;;;;;5008592;28;20472;-82
2023/10/04 05:16:13;;;;;;;2.40;1.20;;;19.60;91.60;;;;;;5008042;28;20057;-83
2023/10/04 05:18:38;;;;;;;4.05;1.30;;;19.60;91.60;;;;;;5007993;28;20782;-83
2023/10/04 05:21:05;;;;;;;3.00;1.55;;;19.60;91.60;;;;;;5008271;28;20053;-83
2023/10/04 05:23:31;;;;;;;3.70;1.40;;;19.60;91.50;;;;;;5007784;28;20088;-83
2023/10/04 05:26:02;;;;;;;4.22;1.63;;;19.60;91.50;;;;;;5008363;28;20467;-85
2023/10/04 05:28:28;;;;;;;4.13;1.35;;;19.60;91.40;;;;;;5009454;28;20041;-84
2023/10/04 05:30:53;;;;;;;4.00;1.48;;;19.60;91.40;;;;;;5007891;28;20056;-82
2023/10/04 05:33:20;;;;;;;3.53;1.50;;;19.50;91.30;;;;;;5007812;28;20598;-83
2023/10/04 15:09:55;;;;;;;6.07;1.90;;;19.90;90.90;;;;;;5391516;23;20078;-88
2023/10/04 15:12:21;;;;;;;5.25;1.50;;;19.90;90.80;;;;;;4945847;29;20497;-89
2023/10/04 15:14:46;;;;;;;4.68;1.73;;;19.90;90.90;;;;;;4954865;29;20118;-89
2023/10/04 15:17:12;;;;;;;5.60;1.95;;;19.90;90.90;;;;;;4954893;29;20118;-89
2023/10/04 15:19:37;;;;;;;3.58;1.60;;;19.80;90.80;;;;;;4941977;29;20106;-87
2023/10/04 15:22:03;;;;;;;6.53;1.90;;;19.80;90.70;;;;;;4936470;29;20028;-88
2023/10/04 15:24:29;;;;;;;6.00;1.75;;;19.80;90.70;;;;;;4937667;29;20160;-89
2023/10/04 15:26:54;;;;;;;5.88;1.98;;;19.90;90.70;;;;;;4937555;29;20394;-89
2023/10/04 15:29:22;;;;;;;5.55;2.20;;;19.80;90.60;;;;;;4936011;29;20036;-89
2023/10/04 15:31:53;;;;;;;5.70;1.73;;;19.80;90.60;;;;;;4937232;29;20026;-89
2023/10/04 15:34:19;;;;;;;;;;;19.80;90.60;;;;;;4935968;29;20505;-89
2023/10/04 15:36:44;;;;;;;5.28;1.63;;;20.00;90.50;;;;;;4936162;29;19907;-89
2023/10/04 15:39:31;;;;;;;5.63;1.90;;;19.80;90.50;;;;;;4935777;29;20440;-89
2023/10/04 15:42:00;;;;;;;5.45;2.08;;;19.80;90.50;;;;;;4936026;29;20040;-89
2023/10/04 15:44:25;;;;;;;5.80;1.90;;;19.90;90.40;;;;;;4935924;29;20159;-89
2023/10/04 15:47:12;;;;;;;5.30;2.00;;;19.90;90.40;;;;;;4935848;29;20337;-90
2023/10/04 15:49:45;;;;;;;6.55;1.80;;;19.90;90.40;;;;;;4936764;29;20028;-90
2023/10/04 15:52:11;;;;;;;5.30;1.60;;;19.80;90.40;;;;;;4935644;29;20486;-90
2023/10/04 15:54:37;;;;;;;5.88;1.88;;;19.80;90.40;;;;;;4935794;29;20034;-90
2023/10/04 15:57:03;;;;;;;4.38;1.75;;;19.80;90.50;;;;;;4937084;29;20394;-89
2023/10/04 15:59:29;;;;;;;6.22;1.95;;;19.80;90.50;;;;;;4935479;29;20163;-89
2023/10/04 16:01:54;;;;;;;5.63;1.67;;;19.80;90.50;;;;;;4935653;29;20069;-89
2023/10/04 16:04:22;;;;;;;5.63;1.83;;;19.80;90.50;;;;;;4935678;29;20118;-89
2023/10/04 16:06:48;;;;;;;5.90;1.80;;;19.80;90.50;;;;;;4935609;29;20042;-89
2023/10/04 16:09:14;;;;;;;5.53;1.85;;;19.90;90.60;;;;;;4935517;29;20036;-89
2023/10/04 16:11:40;;;;;;;4.38;1.80;;;19.80;90.60;;;;;;4935138;29;20040;-89
2023/10/04 16:14:05;;;;;;;4.40;1.95;;;19.80;90.60;;;;;;4935312;29;20441;-89
2023/10/04 16:16:31;;;;;;;5.32;2.00;;;19.80;90.60;;;;;;4935401;29;20019;-89
2023/10/04 16:18:57;;;;;;;5.38;1.88;;;19.70;90.60;;;;;;4935136;29;20507;-89
2023/10/04 16:21:22;;;;;;;5.15;1.98;;;19.70;90.60;;;;;;4935086;29;20114;-89
2023/10/04 16:23:48;;;;;;;5.28;1.98;;;19.70;90.60;;;;;;4935182;29;20126;-89
2023/10/04 16:26:14;;;;;;;5.60;2.13;;;19.70;90.50;;;;;;4934707;29;20086;-89
2023/10/04 16:28:40;;;;;;;5.07;1.83;;;19.70;90.60;;;;;;4934930;29;20031;-89
2023/10/04 16:31:07;;;;;;;4.60;1.80;;;19.70;90.60;;;;;;4934852;29;20023;-89
2023/10/04 16:33:32;;;;;;;5.28;1.90;;;19.80;90.60;;;;;;4934931;29;20067;-87
2023/10/04 16:35:58;;;;;;;4.72;2.00;;;19.70;90.60;;;;;;4934947;29;20070;-88
2023/10/04 16:38:24;;;;;;;5.80;1.95;;;19.70;90.60;;;;;;4944615;28;20023;-89
2023/10/04 16:40:49;;;;;;;5.18;2.05;;;19.80;90.60;;;;;;4954197;29;20024;-89
2023/10/04 16:43:16;;;;;;;5.30;2.03;;;19.80;90.50;;;;;;4955702;29;20028;-84
2023/10/04 16:45:42;;;;;;;5.60;1.80;;;19.80;90.50;;;;;;4954178;28;20075;-84
2023/10/04 16:48:07;;;;;;;4.60;1.98;;;19.70;90.50;;;;;;4953770;28;20027;-84
2023/10/04 16:50:33;;;;;;;5.57;1.83;;;19.80;90.50;;;;;;4954098;29;20043;-84
2023/10/04 16:52:58;;;;;;;5.75;2.20;;;19.70;90.40;;;;;;4954194;29;20038;-84
2023/10/04 16:55:25;;;;;;;5.82;2.10;;;19.70;90.50;;;;;;4954284;29;20020;-84
2023/10/04 16:57:50;;;;;;;5.95;2.17;;;19.70;90.50;;;;;;4947406;29;20020;-83
2023/10/04 17:00:17;;;;;;;5.78;2.10;;;19.70;90.50;;;;;;4934844;29;20042;-85
2023/10/04 17:02:44;;;;;;;7.53;2.03;;;19.70;90.50;;;;;;4934787;29;20027;-84
2023/10/04 17:05:09;;;;;;;5.30;1.77;;;19.70;90.60;;;;;;4935043;29;20079;-85
2023/10/04 17:07:35;;;;;;;5.03;2.33;;;19.70;90.60;;;;;;4934755;29;20032;-82
2023/10/04 17:10:01;;;;;;;5.65;2.13;;;19.70;90.60;;;;;;4935775;29;20031;-83
2023/10/04 17:12:26;;;;;;;7.63;2.03;;;19.70;90.60;;;;;;4934613;29;20167;-81
2023/10/04 17:14:52;;;;;;;5.32;1.92;;;19.60;90.60;;;;;;4934691;29;20536;-82
2023/10/04 17:17:20;;;;;;;6.97;2.40;;;19.70;90.70;;;;;;4934870;29;20499;-85
2023/10/04 17:19:49;;;;;;;6.72;2.10;;;19.60;90.60;;;;;;4934566;29;20024;-83
2023/10/04 17:22:16;;;;;;;4.63;2.05;;;19.60;90.60;;;;;;4931851;29;20023;-88
2023/10/04 17:24:42;;;;;;;5.45;1.88;;;19.60;90.70;;;;;;4934545;29;20073;-84
2023/10/04 17:27:08;;;;;;;28.38;4.15;;;19.60;90.60;;;;;;4935167;29;20437;-86
2023/10/04 17:29:34;;;;;;;72.20;8.60;;;19.70;87.40;;;;;;4919079;29;20062;-84
2023/10/04 17:32:01;;;;;;;68.32;8.35;;;19.80;85.00;;;;;;4934354;29;20122;-83
2023/10/04 17:34:26;;;;;;;56.75;7.82;;;19.80;84.50;;;;;;4933890;29;20123;-87
2023/10/04 17:36:52;;;;;;;63.40;8.70;;;19.80;84.40;;;;;;4934435;29;20043;-84
2023/10/04 17:39:18;;;;;;;58.65;7.47;;;19.80;85.00;;;;;;4934482;29;20406;-83
2023/10/04 17:41:44;;;;;;;50.22;7.97;;;19.70;85.50;;;;;;4934550;29;20032;-83
2023/10/04 17:44:09;;;;;;;58.67;7.43;;;19.70;85.70;;;;;;4934720;29;20190;-83
2023/10/04 17:46:35;;;;;;;49.30;6.68;;;19.70;86.60;;;;;;4934567;29;20028;-83
2023/10/04 17:49:01;;;;;;;44.17;6.78;;;19.70;87.10;;;;;;4934437;29;20020;-83
2023/10/04 17:51:26;;;;;;;40.15;7.05;;;19.60;87.30;;;;;;4934235;29;20028;-83
2023/10/04 17:53:52;;;;;;;37.30;7.13;;;19.60;87.70;;;;;;4934125;29;20154;-83
2023/10/04 17:56:17;;;;;;;40.42;6.90;;;19.60;87.80;;;;;;4936895;29;20398;-83
2023/10/04 17:58:43;;;;;;;36.78;7.18;;;19.60;87.90;;;;;;4938084;29;20489;-82
2023/10/04 18:01:11;;;;;;;35.20;6.68;;;19.60;88.10;;;;;;4938202;29;20031;-83
2023/10/04 18:03:37;;;;;;;33.88;6.82;;;19.60;88.30;;;;;;4939503;29;20020;-83
2023/10/04 18:06:04;;;;;;;32.75;6.18;;;19.60;88.40;;;;;;4939380;29;20537;-83
2023/10/04 18:08:29;;;;;;;27.83;6.05;;;19.60;88.50;;;;;;4938023;29;20119;-83
2023/10/04 18:10:55;;;;;;;28.65;6.57;;;19.60;88.70;;;;;;4938051;29;20064;-83
2023/10/04 18:13:20;;;;;;;19.80;5.40;;;19.60;88.80;;;;;;4937869;29;20035;-84
2023/10/04 18:15:47;;;;;;;27.02;5.82;;;19.60;89.00;;;;;;4937885;29;20486;-83
2023/10/04 18:18:13;;;;;;;25.02;5.55;;;19.60;89.10;;;;;;4938673;29;20028;-83
2023/10/04 18:20:38;;;;;;;21.13;5.78;;;19.60;89.20;;;;;;4937825;29;20114;-84
2023/10/04 18:23:05;;;;;;;21.25;5.00;;;19.60;89.30;;;;;;4937678;29;20032;-83
2023/10/04 18:25:31;;;;;;;19.42;5.13;;;19.60;89.30;;;;;;4939278;29;20024;-83
2023/10/04 18:27:57;;;;;;;21.70;5.30;;;19.50;89.40;;;;;;4937644;29;20023;-84
2023/10/04 18:30:22;;;;;;;19.77;5.45;;;19.60;89.30;;;;;;4937736;29;20134;-83
2023/10/04 18:32:48;;;;;;;21.90;5.25;;;19.60;89.40;;;;;;4937573;29;20553;-83
2023/10/04 18:35:13;;;;;;;14.13;4.35;;;19.60;89.50;;;;;;4937522;29;20066;-83
2023/10/04 18:37:39;;;;;;;21.00;4.75;;;19.60;89.40;;;;;;4937486;29;20055;-83
2023/10/04 18:40:07;;;;;;;18.27;5.25;;;19.60;89.30;;;;;;4937298;29;20030;-83
2023/10/04 18:42:33;;;;;;;20.38;4.72;;;19.60;89.30;;;;;;4938734;29;20390;-83
2023/10/04 18:45:02;;;;;;;18.58;5.13;;;19.60;89.30;;;;;;4938537;29;20039;-83
2023/10/04 18:47:28;;;;;;;19.55;4.15;;;19.60;89.40;;;;;;4937329;29;20032;-84
2023/10/04 18:49:54;;;;;;;15.00;4.78;;;19.60;89.50;;;;;;4936808;29;20034;-84
2023/10/04 18:52:19;;;;;;;16.98;4.88;;;19.60;89.60;;;;;;4938379;29;20045;-83
2023/10/04 18:54:45;;;;;;;16.70;4.72;;;19.60;89.60;;;;;;4937547;29;20019;-83
2023/10/04 18:57:10;;;;;;;18.17;5.25;;;19.60;89.80;;;;;;4937174;29;20115;-84
2023/10/04 18:59:36;;;;;;;18.75;4.30;;;19.50;89.70;;;;;;4936994;29;20031;-84
2023/10/04 19:02:01;;;;;;;15.93;4.75;;;19.50;89.80;;;;;;4937095;29;20086;-84
2023/10/04 19:04:28;;;;;;;14.93;4.40;;;19.50;89.80;;;;;;4936911;29;20035;-83
2023/10/04 19:06:55;;;;;;;15.80;4.22;;;19.60;90.00;;;;;;4936839;29;20031;-83
2023/10/04 19:09:20;;;;;;;13.10;4.53;;;19.50;90.00;;;;;;4936997;29;20020;-83
2023/10/04 19:11:46;;;;;;;13.98;4.43;;;19.50;90.00;;;;;;4936689;29;20099;-83
2023/10/04 19:14:12;;;;;;;12.85;4.13;;;19.50;90.00;;;;;;4936774;29;20019;-83
2023/10/04 19:16:37;;;;;;;12.93;4.25;;;19.50;90.00;;;;;;4936797;29;20020;-83
2023/10/04 19:19:03;;;;;;;15.65;3.88;;;19.50;90.00;;;;;;4936787;29;20445;-83
2023/10/04 19:21:30;;;;;;;11.57;3.95;;;19.50;90.10;;;;;;4948692;29;20067;-83
2023/10/04 19:23:56;;;;;;;13.18;4.38;;;19.60;90.10;;;;;;4955755;29;20035;-83
2023/10/04 19:26:22;;;;;;;9.98;3.83;;;19.50;90.00;;;;;;4957062;29;20374;-83
2023/10/04 19:28:48;;;;;;;11.00;4.07;;;19.50;90.00;;;;;;4955744;28;20023;-82
2023/10/04 19:31:13;;;;;;;11.80;4.00;;;19.50;90.00;;;;;;4955511;29;20117;-82
2023/10/04 19:33:39;;;;;;;11.27;4.05;;;19.60;90.10;;;;;;4955609;29;20399;-82
2023/10/04 19:36:06;;;;;;;9.93;3.70;;;19.60;90.00;;;;;;4955577;29;20159;-82
2023/10/04 19:38:32;;;;;;;14.50;3.90;;;19.60;90.00;;;;;;4955820;28;20023;-83
2023/10/04 19:41:03;;;;;;;12.43;3.90;;;19.50;89.60;;;;;;4955551;29;20023;-83
2023/10/04 19:43:29;;;;;;;10.77;4.07;;;19.60;89.60;;;;;;4943784;29;20378;-83
2023/10/04 19:45:55;;;;;;;13.57;4.43;;;19.60;89.60;;;;;;4936359;29;20031;-82
2023/10/04 19:48:22;;;;;;;9.73;3.50;;;19.50;89.60;;;;;;4940550;28;20114;-83
2023/10/04 19:50:50;;;;;;;14.52;4.20;;;19.50;89.70;;;;;;4955397;29;20079;-83
2023/10/04 19:53:16;;;;;;;10.00;3.50;;;19.50;89.70;;;;;;4955226;29;20405;-83
2023/10/04 19:55:42;;;;;;;11.75;3.83;;;19.50;89.70;;;;;;4955655;29;20079;-82
2023/10/04 19:58:13;;;;;;;10.60;3.78;;;19.50;89.80;;;;;;4955004;28;20023;-82
2023/10/04 20:00:42;;;;;;;9.90;3.75;;;19.50;90.00;;;;;;4955093;29;20047;-82
2023/10/04 20:03:08;;;;;;;9.13;3.67;;;19.50;90.00;;;;;;4955029;29;20038;-83
2023/10/04 20:05:34;;;;;;;11.05;4.00;;;19.40;90.00;;;;;;4955037;29;20027;-83
2023/10/04 20:08:01;;;;;;;9.57;3.60;;;19.40;90.00;;;;;;4954693;28;20032;-82
2023/10/04 20:10:32;;;;;;;8.65;3.38;;;19.40;90.00;;;;;;4954841;29;20172;-82
2023/10/04 20:12:59;;;;;;;8.60;3.45;;;19.40;90.10;;;;;;4948130;29;20039;-82
2023/10/04 20:15:25;;;;;;;9.15;3.40;;;19.40;90.10;;;;;;4935772;29;20136;-83
2023/10/04 20:17:51;;;;;;;9.40;2.90;;;19.40;90.10;;;;;;4935412;29;20512;-81
2023/10/04 20:20:17;;;;;;;8.82;3.55;;;19.40;90.10;;;;;;4935257;29;20028;-82
2023/10/04 20:22:44;;;;;;;10.52;3.55;;;19.40;90.10;;;;;;4935862;29;20039;-83
2023/10/04 20:25:14;;;;;;;12.90;3.88;;;19.50;90.10;;;;;;4935946;29;20119;-83
2023/10/04 20:27:41;;;;;;;8.88;3.17;;;19.50;90.10;;;;;;4935866;29;20042;-83
2023/10/04 20:30:07;;;;;;;10.38;3.83;;;19.50;90.10;;;;;;4935063;29;20390;-83
2023/10/04 20:32:33;;;;;;;9.45;3.70;;;19.50;90.10;;;;;;4935387;29;20032;-83
2023/10/04 20:34:59;;;;;;;9.15;3.53;;;19.50;90.10;;;;;;4936822;29;20480;-83
2023/10/04 20:37:24;;;;;;;9.88;3.70;;;19.50;90.10;;;;;;4935378;29;20394;-83
2023/10/04 20:39:50;;;;;;;11.65;3.70;;;19.50;90.10;;;;;;4935137;29;20022;-83
2023/10/04 20:42:15;;;;;;;9.57;3.47;;;19.50;90.10;;;;;;4935263;29;20031;-83
2023/10/04 20:44:43;;;;;;;8.60;3.22;;;19.50;90.20;;;;;;4935090;29;20066;-83
2023/10/04 20:47:09;;;;;;;9.05;3.80;;;19.40;90.20;;;;;;4935317;29;20031;-83
2023/10/04 20:49:34;;;;;;;10.00;3.42;;;19.40;90.20;;;;;;4934859;29;20089;-83
2023/10/04 20:52:00;;;;;;;8.07;3.47;;;19.40;90.20;;;;;;4934891;29;20166;-83
2023/10/04 20:54:26;;;;;;;9.00;3.38;;;19.40;90.20;;;;;;4935079;29;20374;-83
2023/10/04 20:56:52;;;;;;;8.98;3.40;;;19.40;90.50;;;;;;4934947;29;20024;-83
2023/10/04 20:59:17;;;;;;;8.25;3.40;;;19.40;90.30;;;;;;4935855;29;20020;-83
2023/10/04 21:01:43;;;;;;;8.63;3.40;;;19.40;90.30;;;;;;4935005;29;20474;-83
2023/10/04 21:04:09;;;;;;;9.70;3.55;;;19.40;90.30;;;;;;4934793;29;20062;-83
2023/10/04 21:06:35;;;;;;;7.57;3.20;;;19.40;90.30;;;;;;4934831;29;20108;-83
2023/10/04 21:09:01;;;;;;;9.57;3.13;;;19.40;90.30;;;;;;4934468;29;20062;-83
2023/10/04 21:11:27;;;;;;;8.73;2.97;;;19.40;90.40;;;;;;4934657;29;20387;-83
2023/10/04 21:13:53;;;;;;;7.30;3.00;;;19.40;90.40;;;;;;4934660;29;20031;-83
2023/10/04 21:16:19;;;;;;;7.90;3.13;;;19.40;90.40;;;;;;4935857;29;20107;-83
2023/10/04 21:18:45;;;;;;;7.63;3.25;;;19.40;90.60;;;;;;4934495;29;20062;-83
2023/10/04 21:21:11;;;;;;;7.90;3.13;;;19.40;90.40;;;;;;4934579;29;20405;-83
2023/10/04 21:23:36;;;;;;;6.57;2.80;;;19.40;90.40;;;;;;4935517;29;20028;-83
2023/10/04 21:26:03;;;;;;;6.72;2.85;;;19.40;90.30;;;;;;4935756;29;20031;-83
2023/10/04 21:28:29;;;;;;;7.75;2.92;;;19.40;90.30;;;;;;4934247;29;20061;-83
2023/10/04 21:30:57;;;;;;;7.65;3.20;;;19.40;90.30;;;;;;4933861;29;20035;-83
2023/10/04 21:33:25;;;;;;;6.57;2.90;;;19.40;90.30;;;;;;4935538;29;20034;-83
2023/10/04 21:36:12;;;;;;;6.82;2.60;;;19.40;90.30;;;;;;4934359;29;20082;-83
2023/10/04 21:39:02;;;;;;;8.02;3.03;;;19.40;90.30;;;;;;4935560;29;20075;-83
2023/10/04 21:41:33;;;;;;;7.88;3.03;;;19.40;90.40;;;;;;4934430;29;20023;-83
2023/10/04 21:44:08;;;;;;;;;;;19.40;90.40;;;;;;4936037;29;20039;-83
2023/10/04 21:46:38;;;;;;;7.95;3.10;;;19.40;90.40;;;;;;4934463;29;19907;-83
2023/10/04 21:49:10;;;;;;;8.20;2.95;;;19.40;90.40;;;;;;4934160;29;20031;-83
2023/10/04 21:51:54;;;;;;;6.95;2.65;;;19.40;90.40;;;;;;4934305;29;20036;-83
2023/10/04 21:54:23;;;;;;;7.15;2.95;;;19.40;90.40;;;;;;4935606;29;20078;-83
2023/10/04 21:56:53;;;;;;;6.80;3.00;;;19.40;90.50;;;;;;4934297;29;20074;-83
2023/10/04 21:59:19;;;;;;;6.43;3.00;;;19.50;90.50;;;;;;4933998;29;20132;-83
2023/10/04 22:01:47;;;;;;;7.03;2.78;;;19.40;90.50;;;;;;4934089;29;20123;-83
2023/10/04 22:04:13;;;;;;;6.72;2.80;;;19.40;90.50;;;;;;4934410;29;20032;-83
2023/10/04 22:06:39;;;;;;;6.47;2.42;;;19.40;90.50;;;;;;4934156;29;20055;-83
2023/10/04 22:09:11;;;;;;;6.53;2.90;;;19.40;90.50;;;;;;4935119;29;20185;-83
2023/10/04 22:11:37;;;;;;;7.82;3.25;;;19.40;90.50;;;;;;4934048;29;20031;-83
2023/10/04 22:14:05;;;;;;;5.60;2.63;;;19.40;90.50;;;;;;4934078;29;20042;-83
2023/10/04 22:16:33;;;;;;;7.55;3.00;;;19.40;90.50;;;;;;4934218;29;20024;-83
2023/10/04 22:18:59;;;;;;;7.40;3.08;;;19.40;90.50;;;;;;4933742;29;20028;-83
2023/10/04 22:21:26;;;;;;;7.18;2.97;;;19.40;90.50;;;;;;4934209;29;20020;-83